Time;durP1;ratioP1;P1;durP2;ratioP2;P2;SDS_P1;SDS_P2;PMS_P1;PMS_P2;Temp;Humidity;BMP_temperature;BMP_pressure;BME280_temperature;BME280_humidity;BME280_pressure;Samples;Min_cycle;Max_cycle;Signal;HPM_P1;HPM_P2
2023/12/19 00:01:59;;;;;;;;;18.00;13.33;;;;;5.23;88.21;102844.53;5058931;28;45433;-51
2023/12/19 00:04:24;;;;;;;;;17.00;13.67;;;;;5.26;88.16;102835.75;5060031;28;73136;-50
2023/12/19 00:06:50;;;;;;;;;16.00;11.67;;;;;5.25;88.68;102824.31;5058073;28;68575;-50
2023/12/19 00:09:15;;;;;;;;;17.67;13.67;;;;;5.28;87.51;102829.59;5055838;28;72653;-52
2023/12/19 00:11:40;;;;;;;;;21.67;15.67;;;;;5.26;88.32;102823.41;5057664;28;74566;-52
2023/12/19 00:14:06;;;;;;;;;14.33;9.33;;;;;5.28;88.04;102808.47;5057933;28;70765;-49
2023/12/19 00:16:32;;;;;;;;;18.00;16.33;;;;;5.30;87.81;102803.22;5063795;28;45529;-52
2023/12/19 00:18:58;;;;;;;;;18.67;17.67;;;;;5.30;87.62;102792.66;5056000;28;46161;-52
2023/12/19 00:21:23;;;;;;;;;16.00;15.67;;;;;5.32;87.37;102796.19;5058299;28;45472;-51
2023/12/19 00:23:48;;;;;;;;;15.00;15.00;;;;;5.35;87.31;102800.59;5061256;28;71550;-51
2023/12/19 00:26:15;;;;;;;;;16.33;15.33;;;;;5.37;87.32;102799.72;5057047;28;45685;-51
2023/12/19 00:28:41;;;;;;;;;13.33;12.00;;;;;5.34;87.26;102788.28;5058851;28;45580;-51
2023/12/19 00:31:07;;;;;;;;;22.00;14.67;;;;;5.35;87.58;102792.69;5061399;28;45350;-53
2023/12/19 00:33:32;;;;;;;;;15.00;11.67;;;;;5.30;88.08;102792.66;5056110;28;45472;-49
2023/12/19 00:35:58;;;;;;;;;17.67;14.33;;;;;5.25;88.69;102782.09;5056550;28;45247;-53
2023/12/19 00:38:23;;;;;;;;;13.33;13.00;;;;;5.26;87.78;102783.84;5057084;28;70297;-51
2023/12/19 00:40:48;;;;;;;;;15.00;14.33;;;;;5.27;87.86;102771.53;5057158;28;76739;-52
2023/12/19 00:43:14;;;;;;;;;16.67;15.67;;;;;5.28;87.99;102776.81;5057944;28;45505;-50
2023/12/19 00:45:39;;;;;;;;;14.00;13.33;;;;;5.30;87.53;102776.81;5057740;28;69241;-52
2023/12/19 00:48:05;;;;;;;;;11.33;11.00;;;;;5.33;87.55;102778.59;5057999;28;64983;-51
2023/12/19 00:50:30;;;;;;;;;15.67;11.33;;;;;5.38;87.72;102780.34;5057766;28;46672;-51
2023/12/19 00:52:55;;;;;;;;;23.00;16.67;;;;;5.41;87.41;102776.84;5058337;28;45418;-52
2023/12/19 00:55:20;;;;;;;;;12.33;9.00;;;;;5.45;87.45;102774.22;5057094;28;68661;-51
2023/12/19 00:57:46;;;;;;;;;14.00;10.33;;;;;5.47;86.55;102783.06;5058311;28;45427;-51
2023/12/19 01:00:12;;;;;;;;;14.33;11.33;;;;;5.47;86.79;102777.78;5056753;28;74882;-51
2023/12/19 01:02:37;;;;;;;;;17.33;14.33;;;;;5.49;87.01;102780.41;5057836;28;45475;-51
2023/12/19 01:05:03;;;;;;;;;13.67;10.00;;;;;5.54;86.59;102783.03;5058168;28;45374;-51
2023/12/19 01:07:28;;;;;;;;;15.67;11.00;;;;;5.62;86.50;102782.19;5057905;28;45524;-50
2023/12/19 01:09:53;;;;;;;;;12.33;11.00;;;;;5.68;86.06;102797.16;5057860;28;45415;-50
2023/12/19 01:12:19;;;;;;;;;15.33;11.67;;;;;5.73;85.84;102803.34;5057545;28;48479;-52
2023/12/19 01:14:45;;;;;;;;;12.33;9.67;;;;;5.80;85.76;102805.13;5059667;28;45536;-51
2023/12/19 01:17:10;;;;;;;;;12.33;10.00;;;;;5.87;85.45;102803.38;5061247;28;45608;-53
2023/12/19 01:19:37;;;;;;;;;17.33;12.00;;;;;5.95;85.60;102803.38;5051142;28;45857;-51
2023/12/19 01:22:03;;;;;;;;;17.33;14.33;;;;;6.00;85.26;102799.03;5058458;28;45319;-53
2023/12/19 01:24:28;;;;;;;;;14.67;11.67;;;;;6.05;85.28;102791.97;5057655;28;45344;-52
2023/12/19 01:26:53;;;;;;;;;15.00;15.00;;;;;6.07;84.60;102797.25;5058098;28;45336;-52
2023/12/19 01:29:18;;;;;;;;;15.33;9.33;;;;;6.02;84.22;102797.25;5056873;28;58596;-53
2023/12/19 01:31:44;;;;;;;;;12.67;11.33;;;;;5.99;84.44;102791.97;5057713;28;49448;-50
2023/12/19 01:34:11;;;;;;;;;16.67;11.33;;;;;5.96;84.53;102770.81;5056725;28;69441;-52
2023/12/19 01:36:38;;;;;;;;;13.33;9.33;;;;;5.95;84.48;102779.59;5053322;28;45323;-53
2023/12/19 01:39:04;;;;;;;;;13.33;11.00;;;;;5.99;84.27;102765.53;5057786;28;45491;-50
2023/12/19 01:41:29;;;;;;;;;11.00;10.00;;;;;5.96;84.83;102760.25;5057078;28;45346;-51
2023/12/19 01:43:58;;;;;;;;;15.33;10.33;;;;;5.97;84.97;102740.84;5057881;28;45383;-53
2023/12/19 01:46:24;;;;;;;;;17.00;11.67;;;;;5.99;84.75;102743.53;5057298;28;45375;-48
2023/12/19 01:48:49;;;;;;;;;18.00;14.67;;;;;5.97;84.73;102752.31;5056563;28;75696;-53
2023/12/19 01:51:15;;;;;;;;;16.00;10.67;;;;;5.97;84.89;102749.66;5055864;28;45390;-52
2023/12/19 01:53:42;;;;;;;;;14.33;12.67;;;;;5.98;84.62;102753.22;5057948;28;45329;-51
2023/12/19 01:56:08;;;;;;;;;14.67;13.33;;;;;5.98;84.54;102758.50;5039536;28;45438;-52
2023/12/19 01:58:34;;;;;;;;;17.67;12.00;;;;;5.97;84.47;102773.44;5055913;28;75507;-50
2023/12/19 02:01:00;;;;;;;;;15.67;13.33;;;;;6.01;84.70;102765.53;5057451;28;45390;-50
2023/12/19 02:03:26;;;;;;;;;13.33;11.33;;;;;6.07;84.89;102766.41;5056671;28;45371;-50
2023/12/19 02:05:52;;;;;;;;;10.67;9.00;;;;;6.12;84.63;102769.94;5055552;28;69383;-50
2023/12/19 02:08:18;;;;;;;;;17.67;14.00;;;;;6.17;84.06;102771.72;5054674;28;72888;-50
2023/12/19 02:10:43;;;;;;;;;5.33;4.00;;;;;6.18;84.21;102777.00;5054984;28;72982;-50
2023/12/19 02:13:08;;;;;;;;;11.00;10.00;;;;;6.22;84.22;102768.19;5056889;28;58346;-52
2023/12/19 02:15:34;;;;;;;;;19.33;13.33;;;;;6.21;83.65;102777.00;5055508;28;45359;-53
2023/12/19 02:18:16;;;;;;;;;15.33;12.67;;;;;6.19;84.17;102777.88;5055874;28;75547;-51
2023/12/19 02:20:41;;;;;;;;;12.33;12.33;;;;;6.17;83.98;102772.59;5050214;28;45864;-51
2023/12/19 02:23:06;;;;;;;;;12.00;10.67;;;;;6.19;84.04;102773.50;5057396;28;45318;-51
2023/12/19 02:25:32;;;;;;;;;19.00;16.00;;;;;6.19;83.79;102770.84;5056522;28;64922;-52
2023/12/19 02:27:59;;;;;;;;;12.67;12.33;;;;;6.19;83.97;102765.56;5059245;28;75598;-50
2023/12/19 02:30:25;;;;;;;;;18.67;14.00;;;;;6.23;84.24;102764.69;5054687;28;45379;-51
2023/12/19 02:32:50;;;;;;;;;14.67;11.33;;;;;6.28;84.13;102762.00;5056507;28;48932;-53
2023/12/19 02:35:16;;;;;;;;;19.67;12.33;;;;;6.31;83.77;102758.50;5059585;28;65713;-52
2023/12/19 02:37:41;;;;;;;;;13.00;11.00;;;;;6.32;83.79;102752.31;5060354;28;46146;-53
2023/12/19 02:40:07;;;;;;;;;17.00;11.67;;;;;6.34;83.64;102751.44;5093109;27;45318;-52
2023/12/19 02:42:33;;;;;;;;;16.00;13.00;;;;;6.39;83.44;102743.53;5060015;28;45417;-53
2023/12/19 02:44:58;;;;;;;;;17.67;12.00;;;;;6.43;83.78;102745.28;5059085;28;71317;-51
2023/12/19 02:47:23;;;;;;;;;13.00;10.67;;;;;6.45;83.48;102747.03;5059812;28;46445;-50
2023/12/19 02:49:49;;;;;;;;;14.33;9.00;;;;;6.51;83.37;102745.25;5062028;28;54510;-53
2023/12/19 02:52:14;;;;;;;;;20.33;11.67;;;;;6.56;83.42;102743.50;5058092;28;69055;-50
2023/12/19 02:54:39;;;;;;;;;15.00;13.67;;;;;6.58;83.35;102729.38;5059797;28;69559;-53
2023/12/19 02:57:04;;;;;;;;;16.00;13.00;;;;;6.60;83.31;102727.59;5057950;28;66616;-51
2023/12/19 02:59:30;;;;;;;;;10.00;10.00;;;;;6.63;83.07;102726.72;5057774;28;71002;-51
2023/12/19 03:01:55;;;;;;;;;12.00;9.00;;;;;6.68;83.15;102732.88;5059335;28;45531;-52
2023/12/19 03:04:21;;;;;;;;;12.33;11.00;;;;;6.69;83.11;102723.16;5057023;28;45363;-50
2023/12/19 03:06:46;;;;;;;;;13.33;9.00;;;;;6.73;83.08;102722.28;5056060;28;74515;-50
2023/12/19 03:09:11;;;;;;;;;10.67;10.00;;;;;6.76;82.82;102722.25;5064132;28;45392;-54
2023/12/19 03:11:38;;;;;;;;;9.33;8.00;;;;;6.79;82.84;102740.75;5061071;28;59821;-52
2023/12/19 03:14:03;;;;;;;;;11.67;11.33;;;;;6.81;82.92;102735.50;5061278;28;45602;-51
2023/12/19 03:16:28;;;;;;;;;11.67;10.33;;;;;6.83;82.56;102716.06;5063502;28;70345;-51
2023/12/19 03:18:54;;;;;;;;;11.67;11.33;;;;;6.85;82.36;102711.66;5057788;28;62635;-51
2023/12/19 03:21:19;;;;;;;;;18.00;13.33;;;;;6.86;82.26;102697.53;5063017;28;65098;-54
2023/12/19 03:23:44;;;;;;;;;14.00;10.67;;;;;6.86;82.09;102707.25;5061120;27;70582;-51
2023/12/19 03:26:10;;;;;;;;;15.33;13.00;;;;;6.87;82.22;102706.34;5060040;28;74568;-56
2023/12/19 03:28:37;;;;;;;;;14.33;10.33;;;;;6.90;82.52;102704.56;5063014;28;45354;-52
2023/12/19 03:31:03;;;;;;;;;13.33;12.00;;;;;6.91;82.01;102692.22;5059287;28;45501;-49
2023/12/19 03:33:28;;;;;;;;;12.67;11.00;;;;;6.90;82.12;102687.84;5059008;28;45405;-52
2023/12/19 03:35:53;;;;;;;;;11.67;9.33;;;;;6.86;81.67;102686.97;5095799;27;74542;-53
2023/12/19 03:38:19;;;;;;;;;13.33;11.00;;;;;6.85;82.00;102692.25;5058982;28;66829;-53
2023/12/19 03:40:44;;;;;;;;;17.00;11.67;;;;;6.85;82.11;102690.47;5060669;28;69436;-48
2023/12/19 03:43:10;;;;;;;;;11.00;9.67;;;;;6.86;82.25;102694.03;5061310;27;65381;-52
2023/12/19 03:45:35;;;;;;;;;12.33;10.33;;;;;6.88;82.29;102692.22;5058363;28;73098;-53
2023/12/19 03:48:00;;;;;;;;;18.33;13.00;;;;;6.90;82.25;102696.63;5064199;28;72171;-52
2023/12/19 03:50:25;;;;;;;;;14.33;10.67;;;;;6.94;82.40;102692.22;5060334;27;64792;-50
2023/12/19 03:52:51;;;;;;;;;11.67;10.00;;;;;6.95;81.98;102676.31;5057890;28;70666;-52
2023/12/19 03:55:17;;;;;;;;;13.67;12.33;;;;;6.95;81.95;102684.25;5057089;28;74243;-51
2023/12/19 03:57:42;;;;;;;;;10.67;7.00;;;;;6.94;81.68;102674.56;5059106;28;45279;-51
2023/12/19 04:00:08;;;;;;;;;10.33;10.33;;;;;6.97;81.92;102689.53;5060844;27;55768;-51
2023/12/19 04:02:34;;;;;;;;;12.00;11.00;;;;;6.98;81.78;102670.13;5059430;28;45242;-51
2023/12/19 04:04:59;;;;;;;;;11.67;11.00;;;;;6.98;81.94;102656.91;5055082;28;67006;-54
2023/12/19 04:07:24;;;;;;;;;9.67;8.00;;;;;6.94;81.59;102652.53;5058502;28;49088;-53
2023/12/19 04:09:50;;;;;;;;;14.33;13.00;;;;;6.96;81.61;102645.44;5057602;28;68387;-53
2023/12/19 04:12:15;;;;;;;;;13.00;11.33;;;;;6.95;81.64;102630.47;5094663;27;45414;-51
2023/12/19 04:14:40;;;;;;;;;14.00;11.00;;;;;6.97;81.68;102628.69;5058021;28;61772;-51
2023/12/19 04:17:06;;;;;;;;;12.67;12.33;;;;;6.97;81.58;102614.59;5057912;28;56104;-52
2023/12/19 04:19:31;;;;;;;;;19.67;11.00;;;;;6.95;81.53;102607.53;5059028;28;45453;-52
2023/12/19 04:21:57;;;;;;;;;12.33;11.00;;;;;6.94;81.61;102596.97;5058717;28;69731;-52
2023/12/19 04:24:23;;;;;;;;;18.33;14.67;;;;;6.94;81.55;102610.19;5058618;28;46201;-53
2023/12/19 04:26:48;;;;;;;;;15.33;11.67;;;;;6.90;81.33;102621.69;5062583;28;45385;-51
2023/12/19 04:29:14;;;;;;;;;11.00;11.00;;;;;6.89;81.38;102612.84;5057803;28;60178;-52
2023/12/19 04:31:39;;;;;;;;;8.67;8.67;;;;;6.85;81.30;102613.75;5058983;28;45585;-51
2023/12/19 04:34:05;;;;;;;;;18.33;13.67;;;;;6.83;81.53;102596.16;5054921;28;45486;-56
2023/12/19 04:36:31;;;;;;;;;15.00;11.67;;;;;6.81;81.63;102611.16;5058238;28;64721;-52
2023/12/19 04:38:56;;;;;;;;;16.33;14.33;;;;;6.79;81.63;102617.34;5056407;28;55361;-52
2023/12/19 04:41:22;;;;;;;;;11.00;11.00;;;;;6.80;81.69;102612.91;5058794;28;45517;-51
2023/12/19 04:43:47;;;;;;;;;11.33;10.67;;;;;6.83;81.48;102609.38;5057801;28;56410;-51
2023/12/19 04:46:13;;;;;;;;;18.00;16.67;;;;;6.86;81.99;102604.09;5058134;28;64811;-51
2023/12/19 04:48:38;;;;;;;;;17.33;12.67;;;;;6.91;81.76;102602.25;5057062;28;67865;-53
2023/12/19 04:51:03;;;;;;;;;12.00;11.00;;;;;6.92;81.71;102604.03;5060136;28;65085;-53
2023/12/19 04:53:30;;;;;;;;;13.33;9.00;;;;;6.97;81.71;102599.59;5058441;27;50379;-51
2023/12/19 04:55:55;;;;;;;;;11.00;9.33;;;;;7.00;81.73;102598.69;5056847;28;45526;-51
2023/12/19 04:58:20;;;;;;;;;15.67;13.33;;;;;7.01;81.68;102593.38;5057100;28;67074;-51
2023/12/19 05:00:47;;;;;;;;;14.33;11.00;;;;;6.96;81.26;102581.94;5058155;28;45429;-52
2023/12/19 05:03:12;;;;;;;;;15.67;12.00;;;;;6.92;81.36;102581.09;5061691;28;45861;-52
2023/12/19 05:05:38;;;;;;;;;14.67;12.00;;;;;6.91;81.44;102578.44;5057019;28;71981;-52
2023/12/19 05:08:03;;;;;;;;;15.33;11.00;;;;;6.93;81.66;102580.19;5058228;28;45248;-49
2023/12/19 05:10:29;;;;;;;;;15.00;12.67;;;;;6.97;81.73;102588.13;5057695;28;45515;-51
2023/12/19 05:12:54;;;;;;;;;13.33;12.00;;;;;7.01;82.00;102576.63;5056601;28;75729;-49
2023/12/19 05:15:19;;;;;;;;;12.67;9.67;;;;;7.05;81.60;102584.56;5056631;28;72400;-49
2023/12/19 05:17:45;;;;;;;;;13.67;10.33;;;;;7.08;81.87;102573.06;5056228;28;45359;-52
2023/12/19 05:20:10;;;;;;;;;13.00;8.33;;;;;7.10;81.83;102572.16;5057886;28;45516;-50
2023/12/19 05:22:36;;;;;;;;;11.00;11.00;;;;;7.14;81.92;102583.59;5060528;28;47257;-49
2023/12/19 05:25:01;;;;;;;;;12.00;10.00;;;;;7.15;81.76;102577.41;5057653;28;73454;-52
2023/12/19 05:27:26;;;;;;;;;13.00;11.00;;;;;7.19;81.59;102551.81;5057312;28;46069;-53
2023/12/19 05:29:52;;;;;;;;;10.00;10.00;;;;;7.22;81.57;102562.34;5057603;28;45561;-50
2023/12/19 05:32:17;;;;;;;;;10.00;10.00;;;;;7.24;81.66;102548.22;5056547;28;46496;-51
2023/12/19 05:34:42;;;;;;;;;13.67;12.00;;;;;7.26;81.47;102554.41;5044278;28;45511;-53
2023/12/19 05:37:08;;;;;;;;;16.00;11.33;;;;;7.29;81.48;102556.16;5034605;28;45663;-53
2023/12/19 05:39:33;;;;;;;;;12.67;8.00;;;;;7.32;81.51;102571.13;5037773;28;45467;-51
2023/12/19 05:41:58;;;;;;;;;13.00;9.33;;;;;7.35;81.49;102581.69;5035429;28;47013;-52
2023/12/19 05:44:24;;;;;;;;;12.67;11.00;;;;;7.36;81.33;102579.00;5023292;28;45372;-52
2023/12/19 05:46:50;;;;;;;;;10.00;5.67;;;;;7.40;81.17;102591.31;5038432;28;67173;-53
2023/12/19 05:49:15;;;;;;;;;12.67;11.67;;;;;7.43;81.58;102580.72;5037523;28;45537;-54
2023/12/19 05:51:41;;;;;;;;;10.00;6.00;;;;;7.45;81.22;102591.31;5031608;28;46022;-54
2023/12/19 05:54:06;;;;;;;;;13.33;11.33;;;;;7.47;81.30;102575.41;5032282;28;45353;-51
2023/12/19 05:56:32;;;;;;;;;10.67;9.33;;;;;7.46;81.39;102569.22;5038344;28;45210;-54
2023/12/19 05:58:57;;;;;;;;;13.00;12.00;;;;;7.50;81.17;102578.03;5034300;28;45373;-53
2023/12/19 06:01:23;;;;;;;;;11.67;10.00;;;;;7.49;81.34;102571.84;5038167;28;46191;-52
2023/12/19 06:03:48;;;;;;;;;10.33;10.33;;;;;7.51;80.93;102559.47;5041322;28;58635;-51
2023/12/19 06:06:14;;;;;;;;;11.00;10.00;;;;;7.49;80.84;102555.94;5036822;28;61820;-54
2023/12/19 06:08:39;;;;;;;;;13.00;13.00;;;;;7.47;80.73;102549.81;5033972;28;45490;-53
2023/12/19 06:11:06;;;;;;;;;10.00;9.67;;;;;7.42;80.75;102552.50;5036670;28;75605;-54
2023/12/19 06:13:31;;;;;;;;;12.00;11.00;;;;;7.41;81.03;102561.31;5040640;28;45533;-53
2023/12/19 06:15:57;;;;;;;;;10.33;9.33;;;;;7.43;81.08;102571.88;5039715;28;45358;-52
2023/12/19 06:18:22;;;;;;;;;11.33;9.33;;;;;7.44;81.07;102566.59;5039236;28;60852;-51
2023/12/19 06:20:47;;;;;;;;;10.00;10.00;;;;;7.45;80.70;102570.13;5039269;28;75602;-53
2023/12/19 06:23:12;;;;;;;;;13.67;10.67;;;;;7.45;81.00;102578.06;5021483;28;71096;-51
2023/12/19 06:25:38;;;;;;;;;11.33;9.33;;;;;7.43;80.63;102577.19;5018220;28;68788;-53
2023/12/19 06:28:04;;;;;;;;;14.00;10.00;;;;;7.42;81.07;102571.03;5028647;28;45518;-52
2023/12/19 06:30:30;;;;;;;;;17.33;10.67;;;;;7.41;81.05;102574.56;5040831;28;46359;-53
2023/12/19 06:32:55;;;;;;;;;14.67;8.33;;;;;7.40;80.75;102567.50;5038022;28;64667;-54
2023/12/19 06:35:20;;;;;;;;;14.00;11.00;;;;;7.37;81.03;102562.25;5036540;28;69457;-49
2023/12/19 06:37:46;;;;;;;;;15.67;10.33;;;;;7.39;81.03;102565.75;5039345;28;45321;-51
2023/12/19 06:40:12;;;;;;;;;12.33;7.33;;;;;7.40;81.26;102567.50;5039559;28;46227;-50
2023/12/19 06:42:37;;;;;;;;;16.67;13.33;;;;;7.43;80.90;102564.84;5040127;28;45467;-54
2023/12/19 06:45:02;;;;;;;;;16.67;12.67;;;;;7.41;81.02;102553.38;5038257;28;68606;-50
2023/12/19 06:47:28;;;;;;;;;12.33;7.67;;;;;7.39;80.89;102557.81;5041924;28;45471;-51
2023/12/19 06:49:53;;;;;;;;;10.67;10.67;;;;;7.40;80.78;102550.75;5046035;28;45897;-52
2023/12/19 06:52:19;;;;;;;;;11.67;11.67;;;;;7.38;80.74;102548.13;5039917;28;45527;-51
2023/12/19 06:54:46;;;;;;;;;12.00;10.67;;;;;7.37;80.87;102541.06;5045096;28;45356;-50
2023/12/19 06:57:11;;;;;;;;;13.00;12.33;;;;;7.36;80.82;102554.31;5035543;28;45348;-53
2023/12/19 06:59:36;;;;;;;;;19.67;13.67;;;;;7.33;80.81;102543.75;5037150;28;49114;-52
2023/12/19 07:02:02;;;;;;;;;13.00;13.00;;;;;7.32;81.02;102542.88;5049679;28;48237;-51
2023/12/19 07:04:28;;;;;;;;;14.33;11.67;;;;;7.30;80.83;102526.13;5039712;28;45423;-49
2023/12/19 07:06:53;;;;;;;;;11.67;11.67;;;;;7.28;81.08;102518.19;5044628;28;45439;-50
2023/12/19 07:09:19;;;;;;;;;16.67;13.00;;;;;7.26;81.08;102514.69;5043097;28;45238;-50
2023/12/19 07:11:44;;;;;;;;;19.00;12.33;;;;;7.24;81.23;102507.66;5038805;28;71609;-50
2023/12/19 07:14:09;;;;;;;;;14.33;11.00;;;;;7.21;81.10;102508.56;5042527;28;68250;-51
2023/12/19 07:16:35;;;;;;;;;19.33;11.33;;;;;7.19;80.94;102502.38;5038231;28;67199;-52
2023/12/19 07:19:03;;;;;;;;;11.00;9.00;;;;;7.20;81.45;102496.22;5041919;28;46168;-54
2023/12/19 07:21:31;;;;;;;;;15.33;14.00;;;;;7.18;81.32;102497.13;5019658;28;45448;-55
2023/12/19 07:23:57;;;;;;;;;13.33;10.67;;;;;7.11;81.41;102497.16;5041470;28;45529;-54
2023/12/19 07:26:23;;;;;;;;;12.67;12.67;;;;;7.12;81.47;102501.56;5000626;28;45404;-56
2023/12/19 07:28:50;;;;;;;;;16.33;10.33;;;;;7.10;81.59;102502.47;5024974;28;46119;-54
2023/12/19 07:31:26;;;;;;;;;13.00;8.67;;;;;7.05;81.50;102499.88;5040310;28;45419;-54
2023/12/19 07:33:57;;;;;;;;;18.67;14.67;;;;;6.97;81.90;102501.69;5042814;28;45549;-54
2023/12/19 07:36:23;;;;;;;;;12.33;12.00;;;;;6.98;81.79;102503.44;5070752;28;45571;-55
2023/12/19 07:38:49;;;;;;;;;12.67;11.33;;;;;6.99;81.79;102491.09;5063927;27;45488;-55
2023/12/19 07:41:14;;;;;;;;;11.33;10.00;;;;;6.97;81.82;102500.81;5060121;28;45344;-53
2023/12/19 07:43:40;;;;;;;;;16.00;13.00;;;;;6.98;81.71;102505.22;5059189;28;45356;-54
2023/12/19 07:46:06;;;;;;;;;16.67;15.00;;;;;7.00;82.06;102503.44;5059262;28;45548;-54
2023/12/19 07:48:32;;;;;;;;;12.00;10.33;;;;;7.02;81.98;102488.44;5059496;28;46238;-54
2023/12/19 07:50:57;;;;;;;;;18.33;15.00;;;;;7.02;81.77;102478.72;5059511;28;45495;-54
2023/12/19 07:53:25;;;;;;;;;11.33;11.33;;;;;7.05;81.71;102480.47;5092175;27;45901;-54
2023/12/19 07:55:51;;;;;;;;;7.33;6.00;;;;;7.05;81.86;102481.34;5059761;28;45543;-52
2023/12/19 07:58:16;;;;;;;;;14.33;12.67;;;;;7.05;81.78;102475.16;5059668;28;46117;-53
2023/12/19 08:00:42;;;;;;;;;11.33;10.00;;;;;7.04;81.74;102468.13;5059877;28;45404;-53
2023/12/19 08:03:07;;;;;;;;;12.67;12.00;;;;;7.02;81.94;102465.50;5058933;28;45697;-54
2023/12/19 08:05:32;;;;;;;;;3.00;3.00;;;;;7.04;82.09;102469.00;5058307;28;70081;-54
2023/12/19 08:07:58;;;;;;;;;17.67;12.67;;;;;7.05;82.05;102465.47;5057904;28;75405;-55
2023/12/19 08:10:23;;;;;;;;;11.00;10.33;;;;;7.07;82.13;102468.09;5059985;28;45295;-54
2023/12/19 08:12:48;;;;;;;;;13.33;11.33;;;;;7.09;82.09;102469.84;5058918;28;47132;-54
2023/12/19 08:15:14;;;;;;;;;13.00;11.33;;;;;7.16;82.04;102473.31;5055745;28;45378;-55
2023/12/19 08:17:39;;;;;;;;;16.33;11.67;;;;;7.20;81.56;102474.16;5058486;28;52108;-53
2023/12/19 08:20:05;;;;;;;;;16.33;14.67;;;;;7.21;81.73;102465.31;5058973;28;45232;-54
2023/12/19 08:22:31;;;;;;;;;10.33;10.00;;;;;7.21;81.53;102468.84;5059456;28;45723;-54
2023/12/19 08:24:56;;;;;;;;;16.33;10.33;;;;;7.26;81.61;102476.72;5058148;28;58089;-53
2023/12/19 08:27:26;;;;;;;;;14.67;13.00;;;;;7.31;81.93;102487.28;5058562;28;67116;-56
2023/12/19 08:29:51;;;;;;;;;10.67;10.00;;;;;7.35;81.66;102476.66;5058355;28;45334;-54
2023/12/19 08:32:17;;;;;;;;;14.33;10.67;;;;;7.40;81.47;102471.31;5058910;28;45481;-53
2023/12/19 08:34:42;;;;;;;;;12.00;11.00;;;;;7.45;81.20;102475.66;5058139;28;70381;-54
2023/12/19 08:37:08;;;;;;;;;12.33;11.00;;;;;7.51;81.22;102482.69;5057820;28;66310;-55
2023/12/19 08:39:33;;;;;;;;;14.67;11.33;;;;;7.57;81.32;102479.09;5059095;28;45341;-54
2023/12/19 08:41:59;;;;;;;;;9.67;9.67;;;;;7.62;80.94;102480.78;5058855;28;45677;-54
2023/12/19 08:44:26;;;;;;;;;12.00;10.33;;;;;7.67;80.90;102467.50;5059150;28;45508;-55
2023/12/19 08:46:52;;;;;;;;;11.33;7.00;;;;;7.72;80.70;102476.28;5058310;28;45410;-55
2023/12/19 08:49:18;;;;;;;;;12.67;11.00;;;;;7.74;80.53;102458.59;5058935;28;45496;-55
2023/12/19 08:51:47;;;;;;;;;11.33;10.00;;;;;7.74;80.51;102466.53;5058181;28;67673;-54
2023/12/19 08:54:12;;;;;;;;;11.33;10.00;;;;;7.76;80.46;102459.44;5059840;28;45561;-55
2023/12/19 08:56:38;;;;;;;;;11.33;11.33;;;;;7.80;80.49;102452.34;5059192;28;62591;-55
2023/12/19 08:59:03;;;;;;;;;11.33;11.33;;;;;7.83;80.20;102451.44;5057656;28;72261;-54
2023/12/19 09:01:28;;;;;;;;;19.00;12.00;;;;;7.82;80.05;102447.88;5058027;28;66500;-55
2023/12/19 09:03:54;;;;;;;;;14.00;12.00;;;;;7.81;80.20;102438.22;5056759;28;48874;-55
2023/12/19 09:06:19;;;;;;;;;13.33;10.00;;;;;7.82;80.16;102428.47;5058590;28;46128;-56
2023/12/19 09:08:44;;;;;;;;;32.33;27.67;;;;;7.84;80.06;102424.91;5058658;28;45450;-54
2023/12/19 09:11:09;;;;;;;;;37.67;32.33;;;;;7.89;79.92;102425.72;5057768;28;60516;-55
2023/12/19 09:13:38;;;;;;;;;14.33;12.00;;;;;7.93;79.52;102427.44;5058251;28;50152;-55
2023/12/19 09:16:06;;;;;;;;;12.00;10.00;;;;;7.92;79.46;102417.72;5058048;28;45392;-55
2023/12/19 09:18:31;;;;;;;;;16.33;14.00;;;;;7.93;79.58;102418.63;5040604;28;45316;-55
2023/12/19 09:20:57;;;;;;;;;15.33;13.33;;;;;7.95;79.53;102422.13;5058172;28;45478;-55
2023/12/19 09:23:22;;;;;;;;;17.33;13.67;;;;;8.01;79.80;102422.03;5058082;28;70687;-54
2023/12/19 09:25:47;;;;;;;;;15.33;14.00;;;;;8.07;79.72;102427.25;5058827;28;63366;-55
2023/12/19 09:28:13;;;;;;;;;16.00;12.00;;;;;8.06;78.83;102422.00;5057953;28;56202;-54
2023/12/19 09:30:38;;;;;;;;;7.00;6.67;;;;;8.00;79.17;102430.88;5058674;28;45543;-55
2023/12/19 09:33:03;;;;;;;;;14.00;14.00;;;;;8.02;79.54;102428.25;5058031;28;45299;-55
2023/12/19 09:35:30;;;;;;;;;15.00;12.33;;;;;8.05;79.02;102431.69;5057170;28;45988;-54
2023/12/19 09:38:01;;;;;;;;;15.67;14.00;;;;;8.04;79.05;102416.69;5060726;28;45656;-54
2023/12/19 09:40:29;;;;;;;;;12.33;11.33;;;;;8.05;79.14;102418.44;5062080;28;45347;-53
2023/12/19 09:42:57;;;;;;;;;13.00;12.00;;;;;8.07;78.87;102426.38;5059907;28;45511;-54
2023/12/19 09:45:23;;;;;;;;;27.67;21.00;;;;;8.07;79.16;102427.25;5061936;28;46533;-55
2023/12/19 09:47:59;;;;;;;;;13.00;13.00;;;;;8.13;79.30;102430.72;5061165;28;45284;-55
2023/12/19 09:50:27;;;;;;;;;32.00;27.00;;;;;8.20;79.36;102437.69;5062222;28;45372;-54
2023/12/19 09:52:57;;;;;;;;;6.33;6.33;;;;;8.27;79.40;102423.47;5060123;28;45777;-54
2023/12/19 09:55:25;;;;;;;;;12.33;10.33;;;;;8.34;79.10;102434.84;5062032;28;45415;-54
2023/12/19 09:57:52;;;;;;;;;13.33;11.67;;;;;8.38;78.68;102417.97;5059673;28;45456;-53
2023/12/19 10:00:18;;;;;;;;;13.00;12.33;;;;;8.41;78.78;102418.81;5060737;28;45370;-54
2023/12/19 10:02:43;;;;;;;;;17.67;12.67;;;;;8.43;78.42;102413.50;5060062;28;45547;-55
2023/12/19 10:05:10;;;;;;;;;14.00;12.67;;;;;8.46;78.41;102413.50;5061366;28;45819;-55
2023/12/19 10:07:35;;;;;;;;;15.33;10.33;;;;;8.48;78.19;102409.03;5061385;28;45161;-54
2023/12/19 10:10:01;;;;;;;;;12.00;8.67;;;;;8.46;77.63;102397.59;5061245;28;45261;-55
2023/12/19 10:12:27;;;;;;;;;8.67;8.00;;;;;8.43;78.04;102387.88;5060433;28;70579;-55
2023/12/19 10:14:57;;;;;;;;;14.00;11.00;;;;;8.50;78.21;102391.31;5093263;27;46066;-55
2023/12/19 10:17:23;;;;;;;;;7.67;7.00;;;;;8.59;78.13;102377.00;5059241;28;46712;-55
2023/12/19 10:19:48;;;;;;;;;11.00;11.00;;;;;8.69;77.87;102383.06;5061298;28;45451;-55
2023/12/19 10:22:16;;;;;;;;;10.33;9.33;;;;;8.73;77.26;102374.13;5061626;28;45414;-55
2023/12/19 10:24:42;;;;;;;;;11.00;10.33;;;;;8.82;77.89;102381.06;5061334;28;46892;-55
2023/12/19 10:27:07;;;;;;;;;14.33;11.00;;;;;8.94;77.41;102370.22;5060219;28;45549;-55
2023/12/19 10:29:36;;;;;;;;;10.33;8.33;;;;;9.04;77.38;102361.19;5061502;28;45398;-55
2023/12/19 10:32:18;;;;;;;;;13.00;9.33;;;;;9.09;76.37;102361.97;5060405;28;45616;-55
2023/12/19 10:34:44;;;;;;;;;12.00;11.67;;;;;9.09;76.65;102350.50;5060819;28;46257;-55
2023/12/19 10:37:11;;;;;;;;;9.33;9.00;;;;;9.14;76.91;102343.31;5060717;28;45324;-55
2023/12/19 10:39:37;;;;;;;;;14.00;11.00;;;;;9.14;76.07;102361.91;5060876;28;45539;-55
2023/12/19 10:42:06;;;;;;;;;6.67;6.33;;;;;9.13;76.55;102356.63;5060748;28;45607;-55
2023/12/19 10:44:33;;;;;;;;;6.00;6.00;;;;;9.05;76.28;102354.13;5060584;28;45417;-55
2023/12/19 10:47:01;;;;;;;;;11.67;8.33;;;;;9.01;76.66;102341.78;5059258;28;72813;-55
2023/12/19 10:49:26;;;;;;;;;10.67;8.33;;;;;9.00;76.88;102338.28;5060716;28;45390;-55
2023/12/19 10:51:56;;;;;;;;;7.00;5.00;;;;;8.99;76.79;102328.56;5060009;28;68413;-54
2023/12/19 10:54:24;;;;;;;;;12.67;10.00;;;;;9.02;77.03;102332.94;5060861;28;47633;-55
2023/12/19 10:57:04;;;;;;;;;12.00;11.67;;;;;9.02;76.82;102323.19;5060541;28;45310;-55
2023/12/19 10:59:54;;;;;;;;;8.33;8.00;;;;;9.01;76.90;102318.78;5059653;28;45458;-56
2023/12/19 11:02:41;;;;;;;;;8.33;8.33;;;;;9.02;76.97;102311.69;5060318;28;45335;-57
2023/12/19 11:05:22;;;;;;;;;10.33;7.67;;;;;9.05;76.68;102306.34;5060343;28;46771;-55
2023/12/19 11:07:50;;;;;;;;;7.00;7.00;;;;;9.05;76.88;102307.22;5059160;28;45473;-55
2023/12/19 11:10:18;;;;;;;;;14.67;8.67;;;;;9.04;76.75;102316.06;5042688;28;45351;-56
2023/12/19 11:12:44;;;;;;;;;9.00;9.00;;;;;9.01;76.95;102309.94;5060565;28;45282;-54
2023/12/19 11:15:09;;;;;;;;;9.00;7.00;;;;;9.00;77.22;102309.06;5091893;27;46665;-55